Time;durP1;ratioP1;P1;durP2;ratioP2;P2;SDS_P1;SDS_P2;PMS_P1;PMS_P2;Temp;Humidity;BMP_temperature;BMP_pressure;BME280_temperature;BME280_humidity;BME280_pressure;Samples;Min_cycle;Max_cycle;Signal;HPM_P1;HPM_P2
2021/12/15 00:01:35;;;;;;;14.65;6.78;;;14.50;76.30;;;;;;4807739;29;20047;-74
2021/12/15 00:04:02;;;;;;;14.50;6.25;;;14.50;76.70;;;;;;4807864;29;20139;-75
2021/12/15 00:06:28;;;;;;;18.13;6.70;;;14.40;76.20;;;;;;4808381;29;20127;-73
2021/12/15 00:08:57;;;;;;;12.65;5.88;;;14.50;76.30;;;;;;4807865;29;20138;-74
2021/12/15 00:11:32;;;;;;;13.75;6.30;;;14.50;76.30;;;;;;4807913;29;20082;-73
2021/12/15 00:13:59;;;;;;;11.88;5.78;;;14.50;76.30;;;;;;4808043;29;20043;-73
2021/12/15 00:16:24;;;;;;;13.02;5.97;;;14.50;76.30;;;;;;4807826;29;20065;-73
2021/12/15 00:18:50;;;;;;;9.00;5.32;;;14.50;76.30;;;;;;4807791;29;20376;-73
2021/12/15 00:21:19;;;;;;;9.27;5.32;;;14.40;76.20;;;;;;4792623;29;20472;-73
2021/12/15 00:23:48;;;;;;;15.63;5.53;;;14.50;76.20;;;;;;4807702;29;20051;-73
2021/12/15 00:26:15;;;;;;;11.85;5.82;;;14.40;76.20;;;;;;4807613;29;20078;-74
2021/12/15 00:28:42;;;;;;;14.98;5.95;;;14.40;76.30;;;;;;4807801;29;20057;-73
2021/12/15 00:31:09;;;;;;;13.93;5.60;;;14.40;76.40;;;;;;4807533;29;20142;-73
2021/12/15 00:33:35;;;;;;;16.33;6.57;;;14.40;76.40;;;;;;4807986;29;20067;-73
2021/12/15 00:36:03;;;;;;;12.35;6.50;;;14.40;76.50;;;;;;4807876;29;20141;-74
2021/12/15 00:38:29;;;;;;;13.65;5.85;;;14.40;76.50;;;;;;4807889;29;20058;-74
2021/12/15 00:40:55;;;;;;;13.50;5.93;;;14.30;76.50;;;;;;4807750;29;20054;-73
2021/12/15 00:43:20;;;;;;;14.10;6.22;;;14.30;76.50;;;;;;4807337;29;20391;-74
2021/12/15 00:45:47;;;;;;;11.45;5.32;;;14.30;76.50;;;;;;4807997;29;20059;-74
2021/12/15 00:48:14;;;;;;;15.38;5.65;;;14.40;76.60;;;;;;4807983;29;20055;-73
2021/12/15 00:50:40;;;;;;;15.00;5.45;;;14.40;76.60;;;;;;4807917;29;20047;-73
2021/12/15 00:53:07;;;;;;;13.05;5.43;;;14.40;76.50;;;;;;4807595;29;20479;-73
2021/12/15 00:55:34;;;;;;;13.48;5.40;;;14.40;76.60;;;;;;4807256;29;20482;-74
2021/12/15 00:58:00;;;;;;;12.10;5.90;;;14.40;76.60;;;;;;4807381;29;20039;-73
2021/12/15 01:00:32;;;;;;;11.07;5.32;;;14.40;76.50;;;;;;4807856;29;20371;-74
2021/12/15 01:02:58;;;;;;;13.05;5.55;;;14.40;76.50;;;;;;4793818;29;20051;-74
2021/12/15 01:05:28;;;;;;;16.30;6.25;;;14.40;76.60;;;;;;4811438;29;20077;-73
2021/12/15 01:07:54;;;;;;;14.38;5.47;;;14.40;76.60;;;;;;4795616;29;20054;-74
2021/12/15 01:10:27;;;;;;;12.55;6.32;;;14.40;76.50;;;;;;4810770;29;20054;-73
2021/12/15 01:21:13;;;;;;;12.48;5.93;;;14.30;76.50;;;;;;4811151;29;20090;-73
2021/12/15 01:23:39;;;;;;;13.70;5.40;;;14.30;76.50;;;;;;4810556;29;20061;-73
2021/12/15 01:26:12;;;;;;;12.82;6.55;;;14.30;76.70;;;;;;4810534;29;20051;-73
2021/12/15 01:28:39;;;;;;;11.70;5.50;;;14.30;76.40;;;;;;4794906;29;20062;-74
2021/12/15 01:31:07;;;;;;;14.38;6.18;;;14.30;76.70;;;;;;4810671;29;20388;-73
2021/12/15 01:33:33;;;;;;;11.15;5.55;;;14.30;76.80;;;;;;4810611;29;20349;-73
2021/12/15 01:36:00;;;;;;;11.80;6.22;;;14.30;76.70;;;;;;4810434;29;20089;-73
2021/12/15 01:38:29;;;;;;;11.43;5.85;;;14.30;76.60;;;;;;4794815;29;20129;-73
2021/12/15 01:40:57;;;;;;;11.98;6.47;;;14.30;76.80;;;;;;4810220;29;20459;-73
2021/12/15 01:43:47;;;;;;;12.95;5.45;;;14.30;76.70;;;;;;4810791;29;20088;-73
2021/12/15 01:49:06;;;;;;;16.70;7.15;;;14.20;76.70;;;;;;4810188;29;20058;-73
2021/12/15 01:51:32;;;;;;;13.02;6.18;;;14.20;76.70;;;;;;4794627;29;20054;-74
2021/12/15 01:53:59;;;;;;;12.60;6.10;;;14.20;76.80;;;;;;4810285;29;20049;-73
2021/12/15 01:56:25;;;;;;;12.45;7.53;;;14.20;76.90;;;;;;4809715;29;20080;-73
2021/12/15 01:58:51;;;;;;;15.25;6.68;;;14.20;76.80;;;;;;4810089;29;20054;-74
2021/12/15 02:01:16;;;;;;;14.88;7.13;;;14.20;76.80;;;;;;4809802;29;20115;-73
2021/12/15 02:03:43;;;;;;;12.73;7.03;;;14.20;76.90;;;;;;4810318;29;20098;-74
2021/12/15 02:06:10;;;;;;;13.43;7.03;;;14.20;76.90;;;;;;4810015;29;20054;-73
2021/12/15 02:08:38;;;;;;;13.57;7.53;;;14.20;77.00;;;;;;4809947;29;20387;-73
2021/12/15 02:11:04;;;;;;;15.82;7.68;;;14.20;77.20;;;;;;4809826;29;20402;-74
2021/12/15 02:13:31;;;;;;;16.40;7.35;;;14.20;77.10;;;;;;4793360;29;20098;-73
2021/12/15 02:15:59;;;;;;;13.82;7.03;;;14.20;77.00;;;;;;4809549;29;20047;-73
2021/12/15 02:18:29;;;;;;;13.43;7.55;;;14.20;76.90;;;;;;4809528;29;20069;-73
2021/12/15 02:21:05;;;;;;;12.43;8.10;;;14.20;76.90;;;;;;4809712;29;20047;-74
2021/12/15 02:23:37;;;;;;;15.60;7.78;;;14.20;76.80;;;;;;4809490;29;20047;-74
2021/12/15 02:26:08;;;;;;;13.93;7.67;;;14.20;77.00;;;;;;4809556;29;20062;-73
2021/12/15 02:28:37;;;;;;;15.93;8.75;;;14.20;76.80;;;;;;4809336;29;20062;-74
2021/12/15 02:39:23;;;;;;;13.23;8.23;;;14.20;77.00;;;;;;4793670;29;20506;-73
2021/12/15 02:41:49;;;;;;;14.30;8.90;;;14.20;76.90;;;;;;4809338;29;20090;-73
2021/12/15 02:44:18;;;;;;;16.10;8.88;;;14.20;76.80;;;;;;4809163;29;20118;-73
2021/12/15 02:46:45;;;;;;;17.42;8.60;;;14.20;76.70;;;;;;4809551;29;20374;-73
2021/12/15 02:49:14;;;;;;;16.40;8.65;;;14.20;76.70;;;;;;4809794;29;20069;-73
2021/12/15 02:51:42;;;;;;;15.00;7.88;;;14.10;76.80;;;;;;4809543;29;20050;-73
2021/12/15 02:54:08;;;;;;;15.07;7.85;;;14.10;76.90;;;;;;4809509;29;20054;-73
2021/12/15 02:56:35;;;;;;;16.80;8.02;;;14.10;77.00;;;;;;4808690;29;20141;-73
2021/12/15 02:59:04;;;;;;;20.42;9.43;;;14.20;77.00;;;;;;4808779;29;20111;-73
2021/12/15 03:04:26;;;;;;;17.35;8.95;;;14.20;76.90;;;;;;4808823;29;20395;-73
2021/12/15 03:07:25;;;;;;;16.17;8.50;;;14.10;76.80;;;;;;4808787;29;20059;-73
2021/12/15 03:17:58;;;;;;;16.88;9.07;;;14.10;76.80;;;;;;4809039;29;20207;-73
2021/12/15 03:20:27;;;;;;;14.30;7.38;;;14.10;76.50;;;;;;4792580;29;20065;-73
2021/12/15 03:22:53;;;;;;;18.30;10.25;;;14.10;76.90;;;;;;4808415;29;20061;-74
2021/12/15 03:25:19;;;;;;;16.65;8.73;;;14.10;76.80;;;;;;4808219;29;20122;-73
2021/12/15 03:36:07;;;;;;;14.93;8.43;;;14.00;76.80;;;;;;4808267;29;20055;-74
2021/12/15 03:38:29;;;;;;;17.38;8.48;;;14.00;76.90;;;;;;4807750;29;20062;-74
2021/12/15 03:40:55;;;;;;;16.00;7.95;;;14.10;77.00;;;;;;4808089;29;20054;-74
2021/12/15 03:43:22;;;;;;;16.58;8.48;;;14.00;76.80;;;;;;4807985;29;20051;-73
2021/12/15 03:45:55;;;;;;;14.25;8.85;;;14.10;76.90;;;;;;4808015;29;20051;-73
2021/12/15 03:48:25;;;;;;;15.52;8.20;;;14.10;76.60;;;;;;4808315;29;20043;-73
2021/12/15 03:50:51;;;;;;;17.60;8.77;;;14.10;76.80;;;;;;4807811;29;20059;-73
2021/12/15 03:53:18;;;;;;;16.35;9.13;;;14.10;76.70;;;;;;4792197;29;20058;-73
2021/12/15 03:55:44;;;;;;;17.67;9.35;;;14.10;76.80;;;;;;4808178;29;20082;-74
2021/12/15 03:58:13;;;;;;;17.45;8.77;;;14.10;76.70;;;;;;4807997;29;20069;-74
2021/12/15 04:00:48;;;;;;;14.77;8.85;;;14.10;76.50;;;;;;4808382;29;20082;-73
2021/12/15 04:03:25;;;;;;;14.50;8.77;;;14.10;76.30;;;;;;4807826;29;20130;-73
2021/12/15 04:05:52;;;;;;;13.98;7.97;;;14.00;76.30;;;;;;4807732;29;20050;-74
2021/12/15 04:08:17;;;;;;;14.85;9.10;;;14.00;76.50;;;;;;4808318;29;20050;-74
2021/12/15 04:10:43;;;;;;;11.40;9.13;;;14.00;76.50;;;;;;4807460;29;20051;-73
2021/12/15 04:13:12;;;;;;;14.07;9.13;;;14.00;76.60;;;;;;4807723;29;20135;-74
2021/12/15 04:15:52;;;;;;;14.80;9.00;;;14.00;76.60;;;;;;4805500;29;20188;-73
2021/12/15 04:18:17;;;;;;;15.73;9.50;;;14.00;76.70;;;;;;4808401;29;20067;-74
2021/12/15 04:20:43;;;;;;;16.55;8.68;;;14.00;76.60;;;;;;4807743;29;20498;-73
2021/12/15 04:23:11;;;;;;;14.90;9.15;;;14.00;76.70;;;;;;4807687;29;20055;-73
2021/12/15 04:25:40;;;;;;;15.77;8.95;;;14.00;77.40;;;;;;4807840;29;20092;-74
2021/12/15 04:28:14;;;;;;;19.90;9.30;;;14.00;76.90;;;;;;4792079;29;20356;-73
2021/12/15 04:30:45;;;;;;;17.98;10.00;;;14.00;76.40;;;;;;4808251;29;20059;-73
2021/12/15 04:33:27;;;;;;;15.32;8.88;;;14.00;76.70;;;;;;4807757;29;20467;-75
2021/12/15 04:35:55;;;;;;;16.98;8.02;;;14.10;76.90;;;;;;4807552;29;20132;-72
2021/12/15 04:38:23;;;;;;;16.08;9.00;;;14.30;77.10;;;;;;4809150;29;20433;-73
2021/12/15 04:40:50;;;;;;;15.23;8.85;;;14.40;76.70;;;;;;4793388;30;20047;-78
2021/12/15 04:43:16;;;;;;;16.42;10.13;;;14.50;76.20;;;;;;4798367;29;20129;-73
2021/12/15 04:45:42;;;;;;;18.50;11.70;;;14.60;75.80;;;;;;4811212;29;20058;-77
2021/12/15 04:48:09;;;;;;;22.08;10.15;;;14.70;75.40;;;;;;4810405;29;20361;-75
2021/12/15 04:50:36;;;;;;;21.17;12.57;;;14.70;74.90;;;;;;4795044;29;20353;-76
2021/12/15 04:53:03;;;;;;;22.27;12.35;;;14.80;74.40;;;;;;4811416;29;20472;-74
2021/12/15 04:55:33;;;;;;;19.83;12.60;;;14.80;73.90;;;;;;4810840;29;20051;-75
2021/12/15 04:57:59;;;;;;;20.85;11.63;;;14.80;74.00;;;;;;4810728;29;20437;-76
2021/12/15 05:00:29;;;;;;;21.35;12.63;;;14.80;74.20;;;;;;4795008;29;20054;-74
2021/12/15 05:02:57;;;;;;;20.48;11.63;;;14.80;73.80;;;;;;4810788;29;20047;-76
2021/12/15 05:05:25;;;;;;;23.88;12.75;;;14.80;73.70;;;;;;4795257;29;20122;-73
2021/12/15 05:07:52;;;;;;;26.70;11.80;;;14.90;73.90;;;;;;4809840;29;20054;-75
2021/12/15 05:10:19;;;;;;;24.42;12.73;;;14.90;74.40;;;;;;4810325;29;20094;-73
2021/12/15 05:12:45;;;;;;;21.10;11.23;;;14.90;76.10;;;;;;4810995;29;20190;-74
2021/12/15 05:15:11;;;;;;;20.13;10.15;;;15.00;75.70;;;;;;4810633;29;20424;-75
2021/12/15 05:17:37;;;;;;;14.77;8.55;;;15.20;74.20;;;;;;4810381;29;20043;-74
2021/12/15 05:20:06;;;;;;;20.38;8.50;;;15.50;73.60;;;;;;4793664;29;20050;-75
2021/12/15 05:22:32;;;;;;;21.50;8.15;;;15.70;73.30;;;;;;4793852;29;20141;-74
2021/12/15 05:24:59;;;;;;;17.67;7.78;;;15.90;73.00;;;;;;4810537;29;20115;-76
2021/12/15 05:27:25;;;;;;;14.00;6.90;;;16.10;72.80;;;;;;4794774;29;20534;-73
2021/12/15 05:29:52;;;;;;;14.02;6.50;;;16.20;74.00;;;;;;4795282;29;20130;-79
2021/12/15 05:32:21;;;;;;;21.95;7.75;;;16.30;73.90;;;;;;4810056;29;20120;-72
2021/12/15 05:34:51;;;;;;;15.32;6.85;;;16.30;74.30;;;;;;4809040;29;20046;-72
2021/12/15 05:37:19;;;;;;;17.25;5.97;;;16.40;75.40;;;;;;4794202;29;20438;-73
2021/12/15 05:39:45;;;;;;;22.40;6.38;;;16.40;75.60;;;;;;4809989;29;20130;-74
2021/12/15 05:42:12;;;;;;;13.95;6.28;;;16.40;75.80;;;;;;4810078;29;20051;-75
2021/12/15 05:44:38;;;;;;;17.05;5.93;;;16.50;76.10;;;;;;4793662;29;20115;-73
2021/12/15 05:47:05;;;;;;;13.93;4.93;;;16.50;76.60;;;;;;4809849;29;20066;-75
2021/12/15 05:49:31;;;;;;;16.67;5.65;;;16.50;76.70;;;;;;4809338;29;20057;-74
2021/12/15 05:51:57;;;;;;;15.52;5.57;;;16.50;76.70;;;;;;4807033;29;20055;-76
2021/12/15 05:54:24;;;;;;;19.35;5.88;;;16.50;77.00;;;;;;4805915;29;20051;-74
2021/12/15 05:56:49;;;;;;;19.25;5.18;;;16.50;77.00;;;;;;4809140;29;20456;-74
2021/12/15 05:59:16;;;;;;;15.75;4.72;;;16.50;77.50;;;;;;4809206;29;20055;-73
2021/12/15 06:01:42;;;;;;;15.65;4.40;;;16.50;77.30;;;;;;4793548;29;20042;-72
2021/12/15 06:04:08;;;;;;;19.15;4.65;;;16.50;76.50;;;;;;4810074;29;20047;-74
2021/12/15 06:06:34;;;;;;;19.73;5.00;;;16.50;76.20;;;;;;4810167;29;20059;-76
2021/12/15 06:09:00;;;;;;;25.15;5.30;;;16.50;76.10;;;;;;4809569;29;20062;-75
2021/12/15 06:11:26;;;;;;;14.82;4.60;;;16.50;76.20;;;;;;4793893;29;20055;-77
2021/12/15 06:13:53;;;;;;;13.32;4.40;;;16.50;76.20;;;;;;4808989;29;20408;-76
2021/12/15 06:16:21;;;;;;;13.30;4.45;;;16.50;76.10;;;;;;4793974;29;20061;-74
2021/12/15 06:18:48;;;;;;;12.13;4.43;;;16.60;76.30;;;;;;4809289;29;20055;-73
2021/12/15 06:21:15;;;;;;;14.43;4.25;;;16.60;76.30;;;;;;4809662;29;20356;-73
2021/12/15 06:23:41;;;;;;;14.63;4.18;;;16.60;76.10;;;;;;4802144;29;20121;-73
2021/12/15 06:26:08;;;;;;;15.32;4.00;;;16.60;75.90;;;;;;4793336;29;20069;-73
2021/12/15 06:28:36;;;;;;;14.73;3.70;;;16.70;75.80;;;;;;4809093;29;20051;-73
2021/12/15 06:31:03;;;;;;;12.70;3.83;;;16.80;75.70;;;;;;4808664;29;20055;-73
2021/12/15 06:33:29;;;;;;;13.77;3.55;;;16.90;75.60;;;;;;4790375;30;20179;-75
2021/12/15 06:35:58;;;;;;;8.73;3.58;;;16.90;75.20;;;;;;4790912;29;20070;-75
2021/12/15 06:38:29;;;;;;;10.77;3.35;;;17.00;75.20;;;;;;4791414;30;20063;-76
2021/12/15 06:40:55;;;;;;;10.80;3.30;;;17.10;74.90;;;;;;4790704;29;20487;-75
2021/12/15 06:43:21;;;;;;;13.18;3.80;;;17.10;74.90;;;;;;4790176;30;20087;-75
2021/12/15 06:46:52;;;;;;;12.10;2.95;;;17.20;74.80;;;;;;4790874;30;20427;-74
2021/12/15 06:59:44;;;;;;;21.48;3.97;;;17.30;73.90;;;;;;4789696;29;20146;-74
2021/12/15 07:02:10;;;;;;;12.38;3.05;;;17.30;73.90;;;;;;4790054;30;20212;-73
2021/12/15 07:04:37;;;;;;;14.35;3.75;;;17.20;74.00;;;;;;4790659;30;20047;-75
2021/12/15 07:07:06;;;;;;;12.63;4.47;;;17.20;73.90;;;;;;4791027;30;20130;-78
2021/12/15 07:09:33;;;;;;;13.75;3.67;;;17.20;73.80;;;;;;4789962;30;20114;-77
2021/12/15 07:12:00;;;;;;;17.15;4.38;;;17.10;73.30;;;;;;4790270;30;20053;-78
2021/12/15 07:14:26;;;;;;;19.38;4.22;;;17.10;72.90;;;;;;4789562;30;20092;-78
2021/12/15 07:16:54;;;;;;;14.95;4.13;;;17.10;72.80;;;;;;4790216;30;20059;-79
2021/12/15 07:19:32;;;;;;;17.77;4.40;;;17.00;72.70;;;;;;4791158;30;20081;-78
2021/12/15 07:22:14;;;;;;;12.20;4.30;;;17.00;72.80;;;;;;4794089;29;20452;-79
2021/12/15 07:24:40;;;;;;;16.73;4.70;;;16.90;73.00;;;;;;4774734;30;20154;-75
2021/12/15 07:27:06;;;;;;;17.00;3.95;;;16.90;73.10;;;;;;4790270;29;20507;-78
2021/12/15 07:29:33;;;;;;;19.15;4.18;;;16.90;73.10;;;;;;4804402;29;20048;-78
2021/12/15 07:31:59;;;;;;;25.00;4.78;;;16.90;73.00;;;;;;4805568;29;20146;-78
2021/12/15 07:34:25;;;;;;;16.42;3.92;;;16.90;73.10;;;;;;4808779;29;20087;-79
2021/12/15 07:36:51;;;;;;;14.30;3.90;;;16.90;73.00;;;;;;4807533;29;20051;-77
2021/12/15 07:39:17;;;;;;;14.02;3.72;;;16.90;72.60;;;;;;4808446;29;20115;-79
2021/12/15 07:42:02;;;;;;;12.88;3.80;;;16.90;72.50;;;;;;4808058;29;20035;-77
2021/12/15 07:44:28;;;;;;;11.95;3.65;;;16.90;72.30;;;;;;4808540;29;20067;-78
2021/12/15 07:46:54;;;;;;;12.90;3.20;;;16.90;72.30;;;;;;4792508;29;20106;-78
2021/12/15 07:49:24;;;;;;;19.63;3.78;;;16.90;72.20;;;;;;4807872;29;20054;-79
2021/12/15 07:51:59;;;;;;;10.75;3.05;;;16.80;72.20;;;;;;4807846;29;20424;-78
2021/12/15 07:54:25;;;;;;;14.60;3.55;;;16.80;72.40;;;;;;4808125;29;20071;-78
2021/12/15 07:56:51;;;;;;;11.50;3.05;;;16.80;72.40;;;;;;4808365;29;20132;-77
2021/12/15 07:59:17;;;;;;;12.00;3.28;;;16.80;72.40;;;;;;4808073;29;20396;-77
2021/12/15 08:01:43;;;;;;;14.35;3.28;;;16.80;72.50;;;;;;4807840;29;20043;-77
2021/12/15 08:04:09;;;;;;;11.38;3.10;;;16.80;72.50;;;;;;4791489;29;20155;-77
2021/12/15 08:06:35;;;;;;;19.42;3.22;;;16.80;72.50;;;;;;4807785;29;20096;-77
2021/12/15 08:09:01;;;;;;;10.05;2.70;;;16.80;72.50;;;;;;4808320;29;20456;-79
2021/12/15 08:11:26;;;;;;;15.18;3.22;;;16.80;72.70;;;;;;4808090;29;20133;-77
2021/12/15 08:13:52;;;;;;;14.65;3.53;;;16.80;72.50;;;;;;4791627;29;20510;-79
2021/12/15 08:16:19;;;;;;;15.32;3.22;;;16.80;72.40;;;;;;4808112;29;20073;-80
2021/12/15 08:18:46;;;;;;;15.95;2.70;;;16.80;72.20;;;;;;4808023;29;20459;-79
2021/12/15 08:21:13;;;;;;;12.00;3.08;;;16.70;72.10;;;;;;4808406;29;20065;-79
2021/12/15 08:23:39;;;;;;;11.52;2.45;;;16.70;72.10;;;;;;4791822;29;20129;-78
2021/12/15 08:26:05;;;;;;;9.73;2.53;;;16.70;72.20;;;;;;4792114;29;20154;-77
2021/12/15 08:28:38;;;;;;;12.88;2.40;;;16.70;72.20;;;;;;4808012;29;20047;-73
2021/12/15 08:31:05;;;;;;;10.73;2.72;;;16.70;72.30;;;;;;4791627;29;20059;-76
2021/12/15 08:33:30;;;;;;;10.20;2.90;;;16.70;72.30;;;;;;4807175;29;20087;-79
2021/12/15 08:36:05;;;;;;;11.52;2.63;;;16.70;72.20;;;;;;4791808;29;20082;-77
2021/12/15 08:38:33;;;;;;;9.95;2.53;;;16.70;72.10;;;;;;4792062;29;20085;-81
2021/12/15 08:41:01;;;;;;;9.32;2.42;;;16.70;72.20;;;;;;4791815;29;20521;-79
2021/12/15 08:43:27;;;;;;;9.02;2.72;;;16.70;72.30;;;;;;4776578;29;20062;-79
2021/12/15 08:46:08;;;;;;;9.73;2.88;;;16.70;72.50;;;;;;4776895;29;20058;-78
2021/12/15 08:48:39;;;;;;;14.60;2.85;;;16.70;72.60;;;;;;4776867;29;20054;-79
2021/12/15 08:51:07;;;;;;;9.18;2.17;;;16.70;73.50;;;;;;4791557;29;20062;-79
2021/12/15 08:53:33;;;;;;;11.57;2.33;;;16.70;72.80;;;;;;4807346;29;20082;-79
2021/12/15 08:56:04;;;;;;;8.25;2.28;;;16.70;72.80;;;;;;4791214;29;20046;-82
2021/12/15 08:58:34;;;;;;;11.20;2.60;;;16.70;72.50;;;;;;4776786;29;20479;-79
2021/12/15 09:01:03;;;;;;;9.05;1.95;;;16.80;72.50;;;;;;4791075;29;20090;-76
2021/12/15 09:03:29;;;;;;;12.13;2.10;;;16.80;72.50;;;;;;4807150;29;20074;-79
2021/12/15 09:05:57;;;;;;;10.13;2.25;;;16.90;72.40;;;;;;4776620;29;20089;-79
2021/12/15 09:08:24;;;;;;;4.97;1.70;;;16.90;72.40;;;;;;4791472;29;20138;-80
2021/12/15 09:10:58;;;;;;;13.95;2.00;;;16.90;72.40;;;;;;4807199;29;20437;-80
2021/12/15 09:13:30;;;;;;;9.70;2.17;;;17.00;72.50;;;;;;4782105;29;20066;-77
2021/12/15 09:15:57;;;;;;;6.95;1.95;;;17.00;72.30;;;;;;4807362;29;20051;-76
2021/12/15 09:18:22;;;;;;;9.45;2.17;;;17.10;72.10;;;;;;4807388;29;20075;-77
2021/12/15 09:20:48;;;;;;;7.45;1.90;;;17.10;72.20;;;;;;4791406;29;20055;-81
2021/12/15 09:23:16;;;;;;;10.50;2.38;;;17.20;72.20;;;;;;4808792;29;20042;-76
2021/12/15 09:25:43;;;;;;;12.93;2.50;;;17.20;72.50;;;;;;4810389;29;20494;-76
2021/12/15 09:28:09;;;;;;;9.32;2.03;;;17.20;72.60;;;;;;4810695;29;20062;-78
2021/12/15 09:30:44;;;;;;;8.43;2.47;;;17.20;72.50;;;;;;4794977;29;20058;-72
2021/12/15 09:33:14;;;;;;;10.13;2.25;;;17.20;72.40;;;;;;4809072;29;20074;-79
2021/12/15 09:35:41;;;;;;;13.27;2.17;;;17.20;72.40;;;;;;4810556;29;20147;-77
2021/12/15 09:38:07;;;;;;;10.43;2.08;;;17.20;72.40;;;;;;4810475;29;20360;-77
2021/12/15 09:40:33;;;;;;;10.07;2.58;;;17.20;72.20;;;;;;4810835;29;20051;-76
2021/12/15 09:42:59;;;;;;;16.45;3.00;;;17.20;72.40;;;;;;4809852;29;20049;-74
2021/12/15 10:04:20;;;;;;;6.05;2.03;;;17.00;72.60;;;;;;4794068;29;20058;-81
2021/12/15 10:07:04;;;;;;;15.13;2.00;;;17.10;72.70;;;;;;4794269;29;20086;-76
2021/12/15 10:18:16;;;;;;;13.32;2.00;;;17.10;72.00;;;;;;4809900;29;20082;-76
2021/12/15 10:20:43;;;;;;;9.40;1.70;;;17.10;71.80;;;;;;4809654;29;20115;-73
2021/12/15 10:23:12;;;;;;;19.20;2.58;;;17.10;72.30;;;;;;4809550;29;20047;-79
2021/12/15 10:25:49;;;;;;;20.77;2.65;;;17.10;72.30;;;;;;4809783;29;20042;-75
2021/12/15 10:28:27;;;;;;;7.95;1.58;;;17.10;72.10;;;;;;4809701;29;20090;-77
2021/12/15 10:31:07;;;;;;;11.80;1.95;;;17.10;71.60;;;;;;4793236;29;20090;-76
2021/12/15 10:33:46;;;;;;;13.65;2.00;;;17.20;72.40;;;;;;4809177;29;20479;-75
2021/12/15 10:36:22;;;;;;;6.10;1.90;;;17.20;72.40;;;;;;4808778;29;20062;-79
2021/12/15 10:38:51;;;;;;;7.60;2.10;;;17.20;70.90;;;;;;4809582;29;20055;-75
2021/12/15 10:41:38;;;;;;;7.93;1.95;;;17.10;70.20;;;;;;4794004;29;20050;-76
2021/12/15 10:44:12;;;;;;;5.43;2.28;;;17.10;69.90;;;;;;4793428;29;20066;-80
2021/12/15 10:46:44;;;;;;;7.60;1.85;;;17.10;70.40;;;;;;4809119;29;20070;-76
2021/12/15 10:49:13;;;;;;;8.25;1.67;;;17.10;70.50;;;;;;4793439;29;20050;-77
2021/12/15 10:51:47;;;;;;;6.50;1.58;;;17.00;70.70;;;;;;4809050;29;20042;-76
2021/12/15 10:54:33;;;;;;;10.13;1.70;;;17.00;70.50;;;;;;4809356;29;20046;-74
2021/12/15 10:57:10;;;;;;;6.70;1.75;;;17.00;70.40;;;;;;4793621;29;20051;-80
2021/12/15 10:59:39;;;;;;;7.43;1.70;;;17.10;70.30;;;;;;4793623;29;20379;-77
2021/12/15 11:02:10;;;;;;;9.75;3.00;;;17.10;70.30;;;;;;4809035;29;20062;-78
2021/12/15 11:04:39;;;;;;;6.82;2.05;;;17.10;70.10;;;;;;4792766;29;20051;-76
2021/12/15 11:07:32;;;;;;;9.23;2.72;;;17.10;69.70;;;;;;4809139;29;20047;-76
2021/12/15 11:10:05;;;;;;;8.07;3.13;;;17.00;69.30;;;;;;4809050;29;20039;-78
2021/12/15 11:12:41;;;;;;;12.82;2.55;;;17.00;69.60;;;;;;4793591;29;20062;-77
2021/12/15 11:15:17;;;;;;;9.05;2.55;;;17.00;69.40;;;;;;4809003;29;20051;-75
2021/12/15 11:17:48;;;;;;;11.77;2.42;;;17.00;68.80;;;;;;4808995;29;20119;-76
2021/12/15 11:20:39;;;;;;;11.40;3.20;;;17.00;68.40;;;;;;4809064;29;20051;-74
2021/12/15 11:23:08;;;;;;;11.18;2.60;;;16.90;67.90;;;;;;4792749;29;20050;-78
2021/12/15 11:25:54;;;;;;;10.50;2.35;;;16.90;67.70;;;;;;4808442;29;20087;-80
2021/12/15 11:28:33;;;;;;;8.25;2.42;;;16.90;67.80;;;;;;4792867;29;20043;-77
2021/12/15 11:31:11;;;;;;;8.90;2.25;;;16.90;67.50;;;;;;4792668;29;20055;-78
2021/12/15 11:33:49;;;;;;;6.05;1.77;;;16.90;67.30;;;;;;4777061;30;20476;-78
2021/12/15 11:36:22;;;;;;;8.55;2.10;;;16.90;67.00;;;;;;4790350;29;20112;-78
2021/12/15 11:39:08;;;;;;;11.98;2.38;;;16.80;67.20;;;;;;4789330;30;20055;-76
2021/12/15 11:41:40;;;;;;;5.68;1.80;;;16.80;66.00;;;;;;4790055;29;20055;-78
2021/12/15 11:44:11;;;;;;;4.75;1.38;;;16.70;65.70;;;;;;4790488;29;20448;-79
2021/12/15 11:46:44;;;;;;;5.40;1.42;;;16.70;65.70;;;;;;4789749;29;20035;-78
2021/12/15 11:49:30;;;;;;;9.13;1.30;;;16.60;65.60;;;;;;4774439;30;20126;-79
2021/12/15 11:52:05;;;;;;;10.38;1.83;;;16.60;66.10;;;;;;4774955;30;20043;-79
2021/12/15 11:54:49;;;;;;;17.55;2.17;;;16.60;66.30;;;;;;4774454;30;20166;-75
2021/12/15 11:57:21;;;;;;;;;;;16.60;66.90;;;;;;4790767;29;20101;-80
2021/12/15 12:00:03;;;;;;;4.93;1.48;;;16.70;69.10;;;;;;4784759;30;19987;-78
2021/12/15 12:02:32;;;;;;;5.38;1.20;;;16.70;67.50;;;;;;4766467;30;20138;-79
2021/12/15 12:05:43;;;;;;;7.65;1.48;;;16.70;67.00;;;;;;4804560;29;20055;-79
2021/12/15 12:08:12;;;;;;;5.85;1.13;;;16.80;66.80;;;;;;4774150;30;20452;-79
2021/12/15 12:10:47;;;;;;;4.07;0.95;;;16.70;66.00;;;;;;4789731;30;20116;-79
2021/12/15 12:13:21;;;;;;;5.95;0.90;;;16.70;65.60;;;;;;4773721;30;20209;-79
2021/12/15 12:15:50;;;;;;;4.35;0.82;;;16.70;65.10;;;;;;4774536;30;20066;-78
2021/12/15 12:18:22;;;;;;;5.38;1.23;;;16.70;64.50;;;;;;4774340;30;20134;-78
2021/12/15 12:20:51;;;;;;;4.38;1.08;;;16.70;64.80;;;;;;4774413;30;20039;-79
2021/12/15 12:23:27;;;;;;;11.25;1.00;;;16.70;65.00;;;;;;4774955;30;20051;-78
2021/12/15 12:26:02;;;;;;;4.97;1.02;;;16.70;65.40;;;;;;4771405;30;20048;-78
2021/12/15 12:28:32;;;;;;;9.32;1.65;;;16.70;65.70;;;;;;4779981;30;20130;-78
2021/12/15 12:46:21;;;;;;;5.13;1.08;;;16.50;68.00;;;;;;4766793;29;20059;-80
2021/12/15 15:05:30;;;;;;;1.27;0.52;;;16.50;67.70;;;;;;5160464;25;20027;-83
2021/12/15 15:08:01;;;;;;;3.00;0.43;;;16.50;67.70;;;;;;4618624;31;20139;-80
2021/12/15 15:11:01;;;;;;;3.17;0.50;;;16.50;67.60;;;;;;4626222;31;20058;-80
2021/12/15 15:13:27;;;;;;;2.67;0.57;;;16.50;67.60;;;;;;4589521;31;20138;-80
2021/12/15 15:16:01;;;;;;;3.53;0.50;;;16.40;67.70;;;;;;4617372;31;20086;-75
2021/12/15 15:18:34;;;;;;;5.22;0.90;;;16.40;67.70;;;;;;4617903;31;20468;-79
2021/12/15 15:21:12;;;;;;;5.82;0.70;;;16.40;68.00;;;;;;4603534;31;20058;-76
2021/12/15 15:23:47;;;;;;;7.55;0.93;;;16.40;68.50;;;;;;4617994;31;20063;-79
2021/12/15 15:26:14;;;;;;;3.90;0.75;;;16.40;68.30;;;;;;4588904;31;20087;-81
2021/12/15 15:28:46;;;;;;;2.80;0.35;;;16.50;68.40;;;;;;4602636;31;20052;-79
2021/12/15 15:31:16;;;;;;;5.68;0.40;;;16.60;68.40;;;;;;4605053;31;20062;-80
2021/12/15 15:33:42;;;;;;;3.95;0.50;;;16.70;68.30;;;;;;4607646;31;20071;-78
2021/12/15 15:36:27;;;;;;;3.92;0.75;;;16.80;68.30;;;;;;4602998;31;20632;-83
2021/12/15 15:38:55;;;;;;;10.00;0.70;;;16.90;68.30;;;;;;4589256;31;20063;-83
2021/12/15 15:41:31;;;;;;;6.88;1.00;;;17.00;68.30;;;;;;4617375;31;20077;-79
2021/12/15 15:44:07;;;;;;;5.97;0.95;;;17.00;68.40;;;;;;4620569;31;20366;-82
2021/12/15 15:46:36;;;;;;;6.68;0.57;;;17.10;68.50;;;;;;4616909;31;20055;-82
2021/12/15 15:49:12;;;;;;;7.35;0.68;;;17.10;68.50;;;;;;4617452;31;20051;-76
2021/12/15 15:51:39;;;;;;;4.45;0.70;;;17.10;68.70;;;;;;4625737;31;20043;-78
2021/12/15 15:54:14;;;;;;;5.35;0.68;;;17.10;69.10;;;;;;4592471;31;20194;-77
2021/12/15 15:56:41;;;;;;;5.80;0.98;;;17.10;69.50;;;;;;4600106;31;20683;-79
2021/12/15 15:59:16;;;;;;;4.68;0.55;;;17.10;69.60;;;;;;4589002;31;20083;-78
2021/12/15 16:02:00;;;;;;;9.43;1.80;;;17.10;69.80;;;;;;4590380;31;20059;-76
2021/12/15 16:04:29;;;;;;;8.48;1.25;;;17.00;69.90;;;;;;4598757;31;20079;-80
2021/12/15 16:06:56;;;;;;;7.35;1.15;;;17.00;70.20;;;;;;4616351;31;20065;-78
2021/12/15 16:09:30;;;;;;;5.50;0.82;;;17.00;70.40;;;;;;4602191;31;20055;-79
2021/12/15 16:11:58;;;;;;;5.18;0.40;;;17.00;70.40;;;;;;4616843;31;20054;-76
2021/12/15 16:14:26;;;;;;;5.10;0.80;;;17.00;70.40;;;;;;4616862;31;20055;-77
2021/12/15 16:20:21;;;;;;;4.53;0.60;;;17.10;70.50;;;;;;4616351;31;20056;-81
2021/12/15 16:22:52;;;;;;;6.85;0.88;;;17.10;71.30;;;;;;4616247;31;20510;-77
2021/12/15 16:25:24;;;;;;;5.72;0.80;;;17.10;71.40;;;;;;4616775;31;20052;-80
2021/12/15 16:27:54;;;;;;;4.93;0.40;;;17.10;71.40;;;;;;4586690;31;20135;-76
2021/12/15 16:30:25;;;;;;;5.03;1.10;;;17.10;71.40;;;;;;4615553;31;20090;-78
2021/12/15 16:32:56;;;;;;;7.60;2.20;;;17.10;71.60;;;;;;4589663;31;20130;-76
2021/12/15 16:35:29;;;;;;;8.48;2.50;;;17.10;72.70;;;;;;4633167;31;20456;-78
2021/12/15 16:37:57;;;;;;;6.15;1.60;;;17.20;73.50;;;;;;4633832;31;20052;-75
2021/12/15 16:40:32;;;;;;;2.70;1.10;;;17.20;72.70;;;;;;4633518;31;20059;-73
2021/12/15 16:42:58;;;;;;;11.35;2.63;;;17.30;71.20;;;;;;4616237;31;20064;-76
2021/12/15 16:45:28;;;;;;;9.85;3.40;;;17.30;70.80;;;;;;4616568;31;20063;-77
2021/12/15 16:47:54;;;;;;;8.50;2.50;;;17.40;71.50;;;;;;4616976;31;20052;-80